createdAt,value
2019-04-04T00:02:13.109Z,122.70
2019-04-04T00:05:10.085Z,117.62
2019-04-04T00:08:06.025Z,164.10
2019-04-04T00:11:01.241Z,175.22
2019-04-04T00:13:57.766Z,171.45
2019-04-04T00:16:53.286Z,168.78
2019-04-04T00:19:49.775Z,171.25
2019-04-04T00:22:45.404Z,177.17
2019-04-04T00:25:41.055Z,177.65
2019-04-04T00:28:36.758Z,173.32
2019-04-04T00:31:32.916Z,179.18
2019-04-04T00:34:28.652Z,204.18
2019-04-04T00:37:23.695Z,184.50
2019-04-04T00:40:19.259Z,199.65
2019-04-04T00:43:15.091Z,213.32
2019-04-04T00:46:10.822Z,236.90
2019-04-04T00:49:07.493Z,276.85
2019-04-04T00:52:03.261Z,288.65
2019-04-04T00:54:58.535Z,285.90
2019-04-04T00:57:53.529Z,274.67
2019-04-04T01:00:48.503Z,284.32
2019-04-04T01:03:44.099Z,246.32
2019-04-04T01:06:39.968Z,226.98
2019-04-04T01:09:36.373Z,191.53
2019-04-04T01:12:33.834Z,205.50
2019-04-04T01:15:31.147Z,234.85
2019-04-04T01:18:26.677Z,229.65
2019-04-04T01:21:22.943Z,228.52
2019-04-04T01:24:20.847Z,227.62
2019-04-04T01:27:18.640Z,247.90
2019-04-04T01:30:17.395Z,265.50
2019-04-04T01:33:15.662Z,267.82
2019-04-04T01:36:12.438Z,269.10
2019-04-04T01:39:11.401Z,259.77
2019-04-04T01:42:09.799Z,265.18
2019-04-04T01:45:07.913Z,270.20
2019-04-04T01:48:06.110Z,287.63
2019-04-04T01:51:02.811Z,335.93
2019-04-04T01:54:01.000Z,350.80
2019-04-04T01:56:56.381Z,336.15
2019-04-04T01:59:51.948Z,298.35
2019-04-04T02:02:49.911Z,315.73
2019-04-04T02:05:45.354Z,325.45
2019-04-04T02:08:40.722Z,311.27
2019-04-04T02:11:37.610Z,336.20
2019-04-04T02:14:33.167Z,321.25
2019-04-04T02:17:29.075Z,318.63
2019-04-04T02:20:27.453Z,313.10
2019-04-04T02:23:23.034Z,299.30
2019-04-04T02:26:19.065Z,353.83
2019-04-04T02:29:15.054Z,350.43
2019-04-04T02:32:14.340Z,328.88
2019-04-04T02:35:11.579Z,293.20
2019-04-04T02:38:07.529Z,308.82
2019-04-04T02:41:03.348Z,273.82
2019-04-04T02:43:59.724Z,287.93
2019-04-04T02:46:55.880Z,286.27
2019-04-04T02:49:51.669Z,318.37
2019-04-04T02:52:48.116Z,284.30
2019-04-04T02:55:44.088Z,301.60
2019-04-04T02:58:41.305Z,254.18
2019-04-04T03:01:40.277Z,252.22
2019-04-04T03:04:36.942Z,281.73
2019-04-04T03:07:33.544Z,237.65
2019-04-04T03:10:30.211Z,249.50
2019-04-04T03:13:31.277Z,251.18
2019-04-04T03:16:25.260Z,220.57
2019-04-04T03:19:21.891Z,185.15
2019-04-04T03:22:17.840Z,201.32
2019-04-04T03:25:15.734Z,168.22
2019-04-04T03:28:11.264Z,183.00
2019-04-04T03:31:06.740Z,192.82
2019-04-04T03:34:08.393Z,199.23
2019-04-04T03:37:05.950Z,185.05
2019-04-04T03:40:01.381Z,152.68
2019-04-04T03:42:57.872Z,143.15
2019-04-04T03:46:00.165Z,130.07
2019-04-04T03:48:53.903Z,135.45
2019-04-04T03:51:51.803Z,125.47
2019-04-04T03:54:49.059Z,133.12
2019-04-04T03:57:45.843Z,128.75
2019-04-04T04:00:42.501Z,128.62
2019-04-04T04:03:38.964Z,145.32
2019-04-04T04:06:35.116Z,135.45
2019-04-04T04:09:30.449Z,146.20
2019-04-04T04:12:25.666Z,152.05
2019-04-04T04:15:21.504Z,145.92
2019-04-04T04:18:21.256Z,146.15
2019-04-04T04:21:16.115Z,140.37
2019-04-04T04:24:12.623Z,114.35
2019-04-04T04:27:14.451Z,99.13
2019-04-04T04:30:07.588Z,100.40
2019-04-04T04:33:03.092Z,108.37
2019-04-04T04:35:59.212Z,107.90
2019-04-04T04:38:59.898Z,97.95
2019-04-04T04:41:57.089Z,103.65
2019-04-04T04:44:54.141Z,106.35
2019-04-04T04:47:50.713Z,96.85
2019-04-04T04:50:47.728Z,85.85
2019-04-04T04:53:45.101Z,70.52
2019-04-04T04:56:41.738Z,77.15
2019-04-04T04:59:37.768Z,77.25
2019-04-04T05:02:36.445Z,68.62
2019-04-04T05:05:33.909Z,81.45
2019-04-04T05:08:33.510Z,67.30
2019-04-04T05:11:30.877Z,89.60
2019-04-04T05:14:30.651Z,80.97
2019-04-04T05:17:28.495Z,84.47
2019-04-04T05:20:29.448Z,84.65
2019-04-04T05:23:21.835Z,86.32
2019-04-04T05:26:38.540Z,87.72
2019-04-04T05:29:24.806Z,75.78
2019-04-04T05:32:23.671Z,66.75
2019-04-04T05:35:21.397Z,69.15
2019-04-04T05:38:21.471Z,69.53
2019-04-04T05:41:25.164Z,70.60
2019-04-04T05:44:21.090Z,74.82
2019-04-04T05:47:17.668Z,74.17
2019-04-04T05:50:16.600Z,60.92
2019-04-04T05:53:13.568Z,70.97
2019-04-04T05:56:13.005Z,70.97
2019-04-04T05:59:11.309Z,69.70
2019-04-04T06:02:11.071Z,63.92
2019-04-04T06:05:16.991Z,72.53
2019-04-04T06:08:14.852Z,59.00
2019-04-04T06:11:16.258Z,70.72
2019-04-04T06:14:16.060Z,67.15
2019-04-04T06:17:13.334Z,62.83
2019-04-04T06:20:14.985Z,63.38
2019-04-04T06:23:12.838Z,53.45
2019-04-04T06:26:09.545Z,53.75
2019-04-04T06:29:07.932Z,67.80
2019-04-04T06:32:08.931Z,59.45
2019-04-04T06:35:07.985Z,52.05
2019-04-04T06:38:08.623Z,49.10
2019-04-04T06:41:06.385Z,57.75
2019-04-04T06:44:03.806Z,54.27
2019-04-04T06:47:02.184Z,54.70
2019-04-04T06:50:02.762Z,45.43
2019-04-04T06:52:59.976Z,46.42
2019-04-04T06:56:00.405Z,52.83
2019-04-04T06:59:05.387Z,58.10
2019-04-04T07:02:05.080Z,54.88
2019-04-04T07:04:59.974Z,58.45
2019-04-04T07:07:57.940Z,69.50
2019-04-04T07:10:58.259Z,54.00
2019-04-04T07:13:51.548Z,52.27
2019-04-04T07:16:47.613Z,52.88
2019-04-04T07:19:46.144Z,49.67
2019-04-04T07:22:44.534Z,49.05
2019-04-04T07:25:39.818Z,54.25
2019-04-04T07:28:46.114Z,40.83
2019-04-04T07:31:41.772Z,61.05
2019-04-04T07:34:45.810Z,48.02
2019-04-04T07:37:43.680Z,46.88
2019-04-04T07:40:49.426Z,52.05
2019-04-04T07:44:01.594Z,48.23
2019-04-04T07:46:57.820Z,47.45
2019-04-04T07:49:56.153Z,43.42
2019-04-04T07:53:04.242Z,49.67
2019-04-04T07:56:04.019Z,45.63
2019-04-04T07:59:04.341Z,53.15
2019-04-04T08:02:10.211Z,47.90
2019-04-04T08:05:08.602Z,49.38
2019-04-04T08:08:10.623Z,48.30
2019-04-04T08:11:14.650Z,51.68
2019-04-04T08:14:20.643Z,37.80
2019-04-04T08:17:35.800Z,51.10
2019-04-04T08:24:15.403Z,48.30
2019-04-04T08:27:34.299Z,51.55
2019-04-04T08:33:25.027Z,41.85
2019-04-04T08:36:22.899Z,42.13
2019-04-04T08:39:20.709Z,42.48
2019-04-04T08:42:30.262Z,43.65
2019-04-04T08:45:27.983Z,50.67
2019-04-04T08:48:24.591Z,39.65
2019-04-04T08:51:22.695Z,51.80
2019-04-04T08:54:20.748Z,41.18
2019-04-04T08:57:17.999Z,40.50
2019-04-04T09:00:16.327Z,45.30
2019-04-04T09:03:15.031Z,39.38
2019-04-04T09:06:12.639Z,53.35
2019-04-04T09:09:13.221Z,44.42
2019-04-04T09:12:18.596Z,54.80
2019-04-04T09:15:17.517Z,43.95
2019-04-04T09:18:16.731Z,42.45
2019-04-04T09:21:16.727Z,40.45
2019-04-04T09:24:25.759Z,60.55
2019-04-04T09:27:27.331Z,38.15
2019-04-04T09:30:53.116Z,40.90
2019-04-04T09:34:36.604Z,52.43
2019-04-04T09:38:05.888Z,40.05
2019-04-04T09:41:19.186Z,41.15
2019-04-04T09:44:12.925Z,37.45
2019-04-04T09:47:27.214Z,45.03
2019-04-04T09:50:29.376Z,48.63
2019-04-04T09:53:29.241Z,44.40
2019-04-04T09:56:29.725Z,33.78
2019-04-04T09:59:33.109Z,43.10
2019-04-04T10:02:31.749Z,58.60
2019-04-04T10:05:29.717Z,40.58
2019-04-04T10:08:27.931Z,49.48
2019-04-04T10:11:27.708Z,43.42
2019-04-04T10:14:28.890Z,42.55
2019-04-04T10:17:26.431Z,50.15
2019-04-04T10:20:23.195Z,51.73
2019-04-04T10:23:19.331Z,38.65
2019-04-04T10:29:29.203Z,39.03
2019-04-04T10:32:25.782Z,46.75
2019-04-04T10:35:24.489Z,49.53
2019-04-04T10:38:21.105Z,54.30
2019-04-04T10:41:17.603Z,62.78
2019-04-04T10:44:12.999Z,46.70
2019-04-04T10:47:09.587Z,42.60
2019-04-04T10:50:05.224Z,48.55
2019-04-04T10:53:01.652Z,51.30
2019-04-04T10:55:56.996Z,42.30
2019-04-04T10:58:52.300Z,44.85
2019-04-04T11:02:46.015Z,44.58
2019-04-04T11:05:54.132Z,49.73
2019-04-04T11:08:52.088Z,43.00
2019-04-04T11:11:50.031Z,50.60
2019-04-04T11:14:46.738Z,49.15
2019-04-04T11:17:44.977Z,49.33
2019-04-04T11:20:42.431Z,49.93
2019-04-04T11:23:40.278Z,50.03
2019-04-04T11:26:37.271Z,47.90
2019-04-04T11:29:40.652Z,48.80
2019-04-04T11:33:09.608Z,51.50
2019-04-04T11:36:08.697Z,44.98
2019-04-04T11:39:07.528Z,43.92
2019-04-04T11:42:02.405Z,54.53
2019-04-04T11:44:58.260Z,41.60
2019-04-04T11:47:56.275Z,50.65
2019-04-04T11:50:53.362Z,49.93
2019-04-04T11:53:49.149Z,39.55
2019-04-04T11:56:47.313Z,48.38
2019-04-04T11:59:50.456Z,48.55
2019-04-04T12:02:49.972Z,46.13
2019-04-04T12:05:47.571Z,48.25
2019-04-04T12:08:45.910Z,62.20
2019-04-04T12:11:57.427Z,43.80
2019-04-04T12:15:03.474Z,54.75
2019-04-04T12:18:17.548Z,57.27
2019-04-04T12:21:16.156Z,51.13
2019-04-04T12:24:12.607Z,44.10
2019-04-04T12:27:09.663Z,58.15
2019-04-04T12:30:06.644Z,62.80
2019-04-04T12:33:02.910Z,72.22
2019-04-04T12:35:59.986Z,71.25
2019-04-04T12:39:01.529Z,72.62
2019-04-04T12:42:08.176Z,66.47
2019-04-04T12:45:10.301Z,65.62
2019-04-04T12:48:11.474Z,61.35
2019-04-04T12:51:07.969Z,71.92
2019-04-04T12:54:05.819Z,63.28
2019-04-04T12:57:12.183Z,72.58
2019-04-04T13:00:10.749Z,72.87
2019-04-04T13:03:07.609Z,60.30
2019-04-04T13:06:03.690Z,56.28
2019-04-04T13:08:59.674Z,57.93
2019-04-04T13:11:55.439Z,48.80
2019-04-04T13:14:53.272Z,46.42
2019-04-04T13:17:51.978Z,64.30
2019-04-04T13:20:50.212Z,44.95
2019-04-04T13:23:50.199Z,53.10
2019-04-04T13:26:47.979Z,50.25
2019-04-04T13:29:44.752Z,46.77
2019-04-04T13:32:41.443Z,47.35
2019-04-04T13:35:38.011Z,48.58
2019-04-04T13:38:44.012Z,50.98
2019-04-04T13:41:57.065Z,51.48
2019-04-04T13:44:53.567Z,35.00
2019-04-04T13:47:49.266Z,51.53
2019-04-04T13:50:44.854Z,46.18
2019-04-04T13:53:41.457Z,37.65
2019-04-04T13:56:39.410Z,45.15
2019-04-04T13:59:34.849Z,47.00
2019-04-04T14:02:32.363Z,48.83
2019-04-04T14:05:28.750Z,41.08
2019-04-04T14:08:30.384Z,51.20
2019-04-04T14:11:28.779Z,49.00
2019-04-04T14:14:28.965Z,41.88
2019-04-04T14:17:25.425Z,55.23
2019-04-04T14:20:21.936Z,52.00
2019-04-04T14:23:19.481Z,54.40
2019-04-04T14:26:16.048Z,67.80
2019-04-04T14:29:12.188Z,53.02
2019-04-04T14:32:09.005Z,63.00
2019-04-04T14:35:06.327Z,65.45
2019-04-04T14:38:02.197Z,69.30
2019-04-04T14:41:10.182Z,68.52
2019-04-04T14:43:54.880Z,72.00
2019-04-04T14:46:51.445Z,62.25
2019-04-04T14:49:47.797Z,76.53
2019-04-04T14:52:45.157Z,77.90
2019-04-04T14:55:42.232Z,78.00
2019-04-04T14:58:38.270Z,69.80
2019-04-04T15:01:36.830Z,72.17
2019-04-04T15:04:33.216Z,66.90
2019-04-04T15:07:30.206Z,82.72
2019-04-04T15:10:26.574Z,65.32
2019-04-04T15:13:23.181Z,76.60
2019-04-04T15:16:28.749Z,78.45
2019-04-04T15:19:25.090Z,71.90
2019-04-04T15:22:21.523Z,50.17
2019-04-04T15:25:19.084Z,51.30
2019-04-04T15:28:16.456Z,53.00
2019-04-04T15:31:14.321Z,54.88
2019-04-04T15:34:11.350Z,58.85
2019-04-04T15:37:09.548Z,40.98
2019-04-04T15:40:06.620Z,50.63
2019-04-04T15:43:05.434Z,42.98
2019-04-04T15:46:02.441Z,69.05
2019-04-04T15:48:58.839Z,53.40
2019-04-04T15:51:59.516Z,45.95
2019-04-04T15:54:54.003Z,41.45
2019-04-04T15:57:51.012Z,45.05
2019-04-04T16:00:51.692Z,50.65
2019-04-04T16:03:48.218Z,37.48
2019-04-04T16:06:46.132Z,51.08
2019-04-04T16:09:43.032Z,51.98
2019-04-04T16:12:39.684Z,45.33
2019-04-04T16:15:36.545Z,50.28
2019-04-04T16:18:32.357Z,42.83
2019-04-04T16:21:27.965Z,50.67
2019-04-04T16:24:23.023Z,43.20
2019-04-04T16:27:19.116Z,44.85
2019-04-04T16:30:16.120Z,43.08
2019-04-04T16:33:12.026Z,45.70
2019-04-04T16:36:08.158Z,46.83
2019-04-04T16:39:05.766Z,37.53
2019-04-04T16:42:02.809Z,42.83
2019-04-04T16:44:59.499Z,39.88
2019-04-04T16:47:56.181Z,48.25
2019-04-04T16:50:52.710Z,44.03
2019-04-04T16:53:50.438Z,43.48
2019-04-04T16:56:48.204Z,42.58
2019-04-04T16:59:45.299Z,46.20
2019-04-04T17:02:43.646Z,41.25
2019-04-04T17:05:41.446Z,38.25
2019-04-04T17:08:37.202Z,52.35
2019-04-04T17:11:33.491Z,42.65
2019-04-04T17:14:33.045Z,49.03
2019-04-04T17:17:27.075Z,49.35
2019-04-04T17:20:23.471Z,51.73
2019-04-04T17:23:19.288Z,44.93
2019-04-04T17:26:16.469Z,44.40
2019-04-04T17:29:13.397Z,46.28
2019-04-04T17:32:10.867Z,43.45
2019-04-04T17:35:07.362Z,50.25
2019-04-04T17:38:04.859Z,51.20
2019-04-04T17:41:01.316Z,42.55
2019-04-04T17:43:57.661Z,52.98
2019-04-04T17:46:54.296Z,53.90
2019-04-04T17:49:50.229Z,45.58
2019-04-04T17:52:45.908Z,50.70
2019-04-04T17:55:42.420Z,47.38
2019-04-04T17:58:38.441Z,48.65
2019-04-04T18:01:34.477Z,50.10
2019-04-04T18:04:31.153Z,43.85
2019-04-04T18:07:26.993Z,51.92
2019-04-04T18:10:22.391Z,44.48
2019-04-04T18:13:17.989Z,51.10
2019-04-04T18:16:14.397Z,43.58
2019-04-04T18:19:10.774Z,55.43
2019-04-04T18:22:07.950Z,59.23
2019-04-04T18:25:04.107Z,44.05
2019-04-04T18:28:01.260Z,44.27
2019-04-04T18:30:58.004Z,51.83
2019-04-04T18:33:55.272Z,48.25
2019-04-04T18:36:51.887Z,59.10
2019-04-04T18:39:48.637Z,51.80
2019-04-04T18:42:53.104Z,49.60
2019-04-04T18:45:42.075Z,44.10
2019-04-04T18:48:38.429Z,46.95
2019-04-04T18:51:37.715Z,50.85
2019-04-04T18:54:33.129Z,44.30
2019-04-04T18:57:29.785Z,52.93
2019-04-04T19:00:25.942Z,50.95
2019-04-04T19:03:22.497Z,45.25
2019-04-04T19:06:18.985Z,46.45
2019-04-04T19:09:16.035Z,57.73
2019-04-04T19:12:12.060Z,61.30
2019-04-04T19:15:08.149Z,45.12
2019-04-04T19:18:04.502Z,46.53
2019-04-04T19:21:00.736Z,59.45
2019-04-04T19:23:57.379Z,47.65
2019-04-04T19:26:53.579Z,48.20
2019-04-04T19:29:50.649Z,49.83
2019-04-04T19:32:46.926Z,50.88
2019-04-04T19:35:44.310Z,53.55
2019-04-04T19:38:43.057Z,51.53
2019-04-04T19:41:42.331Z,51.53
2019-04-04T19:44:52.187Z,41.83
2019-04-04T19:47:37.128Z,46.25
2019-04-04T19:50:33.422Z,52.05
2019-04-04T19:53:31.546Z,55.50
2019-04-04T19:56:28.649Z,57.58
2019-04-04T19:59:27.310Z,50.40
2019-04-04T20:02:25.131Z,53.15
2019-04-04T20:05:22.165Z,54.33
2019-04-04T20:08:18.764Z,54.50
2019-04-04T20:11:14.426Z,54.45
2019-04-04T20:14:12.096Z,60.25
2019-04-04T20:17:07.756Z,54.23
2019-04-04T20:20:03.417Z,55.90
2019-04-04T20:22:59.293Z,59.88
2019-04-04T20:25:57.092Z,50.83
2019-04-04T20:28:53.282Z,57.13
2019-04-04T20:31:49.276Z,59.73
2019-04-04T20:34:45.386Z,58.52
2019-04-04T20:37:41.399Z,52.90
2019-04-04T20:40:37.420Z,68.87
2019-04-04T20:43:42.705Z,75.72
2019-04-04T20:46:30.157Z,52.38
2019-04-04T20:49:26.332Z,53.42
2019-04-04T20:52:22.784Z,56.80
2019-04-04T20:55:19.000Z,55.38
2019-04-04T20:58:14.876Z,58.20
2019-04-04T21:01:10.934Z,65.10
2019-04-04T21:04:07.008Z,54.40
2019-04-04T21:07:03.026Z,51.18
2019-04-04T21:09:59.106Z,48.85
2019-04-04T21:12:55.430Z,57.27
2019-04-04T21:15:51.036Z,53.70
2019-04-04T21:18:47.351Z,51.70
2019-04-04T21:21:43.421Z,53.75
2019-04-04T21:24:39.028Z,61.13
2019-04-04T21:27:34.823Z,54.90
2019-04-04T21:30:30.648Z,50.08
2019-04-04T21:33:26.677Z,52.40
2019-04-04T21:36:22.838Z,55.78
2019-04-04T21:39:18.891Z,58.90
2019-04-04T21:42:14.321Z,55.83
2019-04-04T21:45:15.064Z,55.10
2019-04-04T21:48:07.297Z,65.55
2019-04-04T21:51:02.684Z,57.67
2019-04-04T21:53:57.824Z,66.02
2019-04-04T21:56:52.879Z,51.58
2019-04-04T21:59:48.718Z,54.63
2019-04-04T22:02:44.646Z,60.63
2019-04-04T22:05:40.446Z,59.98
2019-04-04T22:08:36.541Z,51.28
2019-04-04T22:11:32.956Z,54.03
2019-04-04T22:14:28.840Z,62.05
2019-04-04T22:17:24.757Z,56.42
2019-04-04T22:20:20.317Z,54.23
2019-04-04T22:23:17.099Z,58.35
2019-04-04T22:26:12.914Z,56.75
2019-04-04T22:29:08.780Z,53.40
2019-04-04T22:32:06.109Z,52.55
2019-04-04T22:35:01.640Z,56.00
2019-04-04T22:37:57.298Z,48.70
2019-04-04T22:40:53.191Z,51.55
2019-04-04T22:43:49.226Z,51.45
2019-04-04T22:46:47.560Z,50.38
2019-04-04T22:49:44.397Z,46.18
2019-04-04T22:52:41.545Z,51.58
2019-04-04T22:55:38.113Z,46.28
2019-04-04T22:58:35.081Z,49.08
2019-04-04T23:01:31.181Z,47.67
2019-04-04T23:04:27.613Z,46.60
2019-04-04T23:07:24.252Z,41.30
2019-04-04T23:10:21.378Z,49.70
2019-04-04T23:13:17.788Z,50.75
2019-04-04T23:16:13.955Z,46.23
2019-04-04T23:19:10.776Z,46.68
2019-04-04T23:22:06.894Z,40.48
2019-04-04T23:25:03.138Z,51.88
2019-04-04T23:27:59.393Z,40.92
2019-04-04T23:30:56.116Z,45.15
2019-04-04T23:33:51.870Z,38.48
2019-04-04T23:36:47.612Z,40.78
2019-04-04T23:39:43.208Z,42.00
2019-04-04T23:42:38.976Z,44.93
2019-04-04T23:45:34.841Z,48.80
2019-04-04T23:48:31.357Z,41.02
2019-04-04T23:51:27.157Z,49.88
2019-04-04T23:54:24.233Z,48.98
2019-04-04T23:57:20.542Z,42.27
